Time;durP1;ratioP1;P1;durP2;ratioP2;P2;SDS_P1;SDS_P2;PMS_P1;PMS_P2;Temp;Humidity;BMP_temperature;BMP_pressure;BME280_temperature;BME280_humidity;BME280_pressure;Samples;Min_cycle;Max_cycle;Signal;HPM_P1;HPM_P2
2022/11/11 00:00:24;;;;;;;9.23;5.07;;;12.70;56.40;;;;;;5052347;28;20049;-50
2022/11/11 00:02:54;;;;;;;9.90;4.90;;;12.70;56.40;;;;;;5042741;28;20067;-45
2022/11/11 00:05:22;;;;;;;10.20;4.75;;;12.70;56.50;;;;;;5054684;28;20057;-43
2022/11/11 00:07:49;;;;;;;15.30;5.55;;;12.70;56.50;;;;;;5050733;28;20060;-43
2022/11/11 00:10:18;;;;;;;8.73;4.97;;;12.70;56.50;;;;;;5052570;28;20053;-44
2022/11/11 00:12:45;;;;;;;10.80;5.32;;;12.70;56.50;;;;;;5053165;28;20078;-44
2022/11/11 00:15:14;;;;;;;11.68;5.30;;;12.60;56.40;;;;;;5060982;28;20519;-43
2022/11/11 00:26:00;;;;;;;14.30;5.28;;;12.70;56.60;;;;;;5048786;28;19928;-42
2022/11/11 00:28:27;;;;;;;8.73;5.13;;;12.60;56.30;;;;;;5065198;28;20420;-47
2022/11/11 00:31:03;;;;;;;15.05;5.90;;;12.60;56.40;;;;;;5050608;28;20048;-45
2022/11/11 00:33:31;;;;;;;8.90;4.80;;;12.60;56.60;;;;;;5053149;28;20052;-46
2022/11/11 00:35:57;;;;;;;14.15;5.43;;;12.60;56.60;;;;;;5054401;28;20053;-47
2022/11/11 00:41:10;;;;;;;10.60;4.72;;;12.50;56.60;;;;;;5060863;28;20052;-45
2022/11/11 00:43:37;;;;;;;9.80;5.07;;;12.50;56.60;;;;;;5056655;28;20052;-46
2022/11/11 00:51:36;;;;;;;9.60;5.05;;;12.50;56.70;;;;;;5058817;28;20059;-43
2022/11/11 00:54:03;;;;;;;10.95;4.70;;;12.50;56.80;;;;;;5060879;28;20045;-43
2022/11/11 00:56:30;;;;;;;11.48;5.32;;;12.50;56.80;;;;;;5051394;28;20053;-44
2022/11/11 00:58:58;;;;;;;9.50;4.90;;;12.50;56.90;;;;;;5050704;28;20056;-42
2022/11/11 01:01:27;;;;;;;12.10;5.22;;;12.40;56.90;;;;;;5050269;28;20048;-43
2022/11/11 01:03:54;;;;;;;12.00;4.70;;;12.40;56.90;;;;;;5049286;28;20052;-46
2022/11/11 01:06:21;;;;;;;9.05;4.78;;;12.40;56.90;;;;;;5050974;28;20052;-43
2022/11/11 01:08:48;;;;;;;9.15;4.70;;;12.40;56.90;;;;;;5062887;28;20413;-43
2022/11/11 01:11:17;;;;;;;7.85;4.57;;;12.40;56.90;;;;;;5041191;28;20048;-50
2022/11/11 01:13:45;;;;;;;10.80;4.78;;;12.40;56.90;;;;;;5064382;28;20056;-42
2022/11/11 01:16:14;;;;;;;7.63;4.88;;;12.40;56.90;;;;;;5053554;28;20417;-43
2022/11/11 01:18:43;;;;;;;9.18;4.90;;;12.40;57.00;;;;;;5064889;28;20060;-43
2022/11/11 01:21:12;;;;;;;7.45;4.65;;;12.40;57.00;;;;;;5045579;28;20053;-43
2022/11/11 01:23:41;;;;;;;9.95;5.10;;;12.40;57.00;;;;;;5050054;28;20056;-46
2022/11/11 01:26:13;;;;;;;12.48;5.68;;;12.40;57.00;;;;;;5044756;28;20061;-44
2022/11/11 01:28:41;;;;;;;12.77;5.22;;;12.30;57.00;;;;;;5065227;28;20495;-42
2022/11/11 01:31:09;;;;;;;7.53;4.35;;;12.40;57.00;;;;;;5049698;28;20049;-44
2022/11/11 01:33:37;;;;;;;9.45;5.30;;;12.40;56.90;;;;;;5053481;28;20057;-51
2022/11/11 01:36:11;;;;;;;9.82;4.75;;;12.30;56.90;;;;;;5065052;28;20071;-46
2022/11/11 01:38:41;;;;;;;9.55;4.82;;;12.30;56.90;;;;;;5056313;28;20511;-44
2022/11/11 01:43:56;;;;;;;7.47;4.80;;;12.30;56.80;;;;;;5061879;28;20060;-45
2022/11/11 01:46:31;;;;;;;8.35;4.38;;;12.30;56.80;;;;;;5047606;28;20523;-43
2022/11/11 01:49:20;;;;;;;11.98;4.97;;;12.30;56.80;;;;;;5058982;28;20053;-44
2022/11/11 01:51:54;;;;;;;9.07;5.18;;;12.30;56.80;;;;;;5049059;28;20051;-47
2022/11/11 01:54:27;;;;;;;10.45;5.38;;;12.30;56.80;;;;;;5059023;28;20083;-43
2022/11/11 01:57:00;;;;;;;10.85;5.10;;;12.20;56.80;;;;;;5051426;28;20045;-43
2022/11/11 01:59:30;;;;;;;9.18;4.47;;;12.20;56.80;;;;;;5059930;28;20413;-44
2022/11/11 02:01:58;;;;;;;8.95;4.50;;;12.20;56.80;;;;;;5039832;28;20048;-46
2022/11/11 02:07:12;;;;;;;10.02;5.55;;;12.20;56.90;;;;;;5063251;28;20067;-44
2022/11/11 02:09:44;;;;;;;12.32;5.53;;;12.20;56.90;;;;;;5049711;28;20063;-43
2022/11/11 02:14:59;;;;;;;10.77;4.72;;;12.10;56.80;;;;;;5063533;28;20542;-43
2022/11/11 02:17:29;;;;;;;10.88;6.00;;;12.20;56.80;;;;;;5044675;28;20057;-43
2022/11/11 02:19:58;;;;;;;13.63;5.93;;;12.20;56.80;;;;;;5050256;28;20064;-44
2022/11/11 02:22:34;;;;;;;9.98;5.32;;;12.20;56.80;;;;;;5040354;28;20049;-42
2022/11/11 02:25:07;;;;;;;11.23;5.90;;;12.10;56.90;;;;;;5057276;28;20052;-42
2022/11/11 02:27:37;;;;;;;11.90;6.03;;;12.10;56.80;;;;;;5055954;28;20496;-43
2022/11/11 02:30:14;;;;;;;11.90;6.65;;;12.10;57.30;;;;;;5056620;28;20056;-47
2022/11/11 02:32:43;;;;;;;11.23;5.47;;;12.10;56.80;;;;;;5046138;28;20060;-43
2022/11/11 02:35:14;;;;;;;9.00;5.50;;;12.10;56.80;;;;;;5063736;28;20052;-48
2022/11/11 02:37:44;;;;;;;10.95;6.03;;;12.00;56.80;;;;;;5045954;28;20411;-45
2022/11/11 02:40:17;;;;;;;11.35;5.70;;;12.00;56.90;;;;;;5039775;28;20049;-42
2022/11/11 02:42:44;;;;;;;16.08;7.15;;;12.00;57.00;;;;;;5055644;28;20068;-45
2022/11/11 02:45:12;;;;;;;19.80;7.55;;;12.00;57.00;;;;;;5061517;28;20055;-43
2022/11/11 02:47:39;;;;;;;13.65;6.72;;;12.00;57.00;;;;;;5042872;28;20056;-42
2022/11/11 02:50:07;;;;;;;12.98;7.05;;;12.00;57.10;;;;;;5040935;28;20080;-47
2022/11/11 02:52:34;;;;;;;13.48;6.80;;;12.00;57.10;;;;;;5051152;28;20477;-43
2022/11/11 02:55:02;;;;;;;16.10;7.65;;;11.90;57.10;;;;;;5047446;28;20049;-44
2022/11/11 02:57:30;;;;;;;11.27;6.30;;;11.90;57.20;;;;;;5059195;28;20492;-46
2022/11/11 03:00:00;;;;;;;11.85;7.00;;;11.90;57.20;;;;;;5052777;28;20064;-42
2022/11/11 03:02:27;;;;;;;15.98;7.13;;;11.90;57.30;;;;;;5058893;28;20048;-42
2022/11/11 03:04:56;;;;;;;14.30;7.55;;;11.90;57.30;;;;;;5054829;28;20045;-44
2022/11/11 03:07:25;;;;;;;9.95;6.57;;;11.90;57.30;;;;;;5046902;28;20056;-42
2022/11/11 03:09:52;;;;;;;14.80;6.97;;;11.90;57.40;;;;;;5050131;28;20048;-43
2022/11/11 03:12:19;;;;;;;10.45;7.00;;;11.90;57.40;;;;;;5047768;28;20048;-45
2022/11/11 03:14:48;;;;;;;15.48;7.10;;;11.90;57.50;;;;;;5063781;28;20057;-47
2022/11/11 03:22:41;;;;;;;10.55;6.43;;;11.90;57.50;;;;;;5042771;28;20040;-42
2022/11/11 03:27:59;;;;;;;13.90;7.78;;;11.80;57.50;;;;;;5053102;28;20049;-42
2022/11/11 03:30:28;;;;;;;15.68;8.13;;;11.80;57.50;;;;;;5050559;28;20057;-43
2022/11/11 03:32:55;;;;;;;13.25;7.35;;;11.80;57.60;;;;;;5058212;28;20059;-45
2022/11/11 03:35:28;;;;;;;14.20;6.68;;;11.80;57.60;;;;;;5057799;28;20064;-44
2022/11/11 03:40:40;;;;;;;15.50;7.03;;;11.80;57.70;;;;;;5051170;28;20052;-55
2022/11/11 03:43:07;;;;;;;13.57;7.82;;;11.80;57.70;;;;;;5051574;28;20060;-57
2022/11/11 03:45:36;;;;;;;13.07;7.15;;;11.80;57.70;;;;;;5052456;28;20060;-58
2022/11/11 03:48:04;;;;;;;14.60;7.85;;;11.80;57.70;;;;;;5048683;28;20053;-55
2022/11/11 03:50:31;;;;;;;12.40;6.93;;;11.70;58.20;;;;;;5040638;28;20686;-57
2022/11/11 03:52:59;;;;;;;13.52;7.88;;;11.70;57.70;;;;;;5052396;28;20503;-57
2022/11/11 03:55:26;;;;;;;13.70;8.13;;;11.70;57.70;;;;;;5057571;28;21121;-57
2022/11/11 03:57:54;;;;;;;12.15;7.93;;;11.70;57.70;;;;;;5067120;28;20063;-58
2022/11/11 04:00:23;;;;;;;13.32;7.95;;;11.70;57.80;;;;;;5055533;28;20088;-57
2022/11/11 04:11:12;;;;;;;14.80;8.10;;;11.70;57.80;;;;;;5052229;28;20075;-57
2022/11/11 04:16:25;;;;;;;12.45;8.20;;;11.60;57.80;;;;;;5057171;28;20068;-57
2022/11/11 04:21:44;;;;;;;13.48;7.82;;;11.60;57.90;;;;;;5047887;28;20059;-57
2022/11/11 04:27:00;;;;;;;11.88;6.88;;;11.60;58.00;;;;;;5050893;28;20068;-57
2022/11/11 04:29:28;;;;;;;12.77;8.43;;;11.60;58.00;;;;;;5054549;28;20068;-57
2022/11/11 04:34:47;;;;;;;13.93;7.90;;;11.60;58.20;;;;;;5049613;28;20055;-57
2022/11/11 04:37:15;;;;;;;14.95;7.90;;;11.60;58.20;;;;;;5054443;28;20056;-58
2022/11/11 04:42:28;;;;;;;11.43;6.70;;;11.50;58.30;;;;;;5053823;28;20064;-53
2022/11/11 04:47:53;;;;;;;12.38;7.40;;;11.50;58.40;;;;;;5050814;28;20055;-57
2022/11/11 04:50:23;;;;;;;13.02;7.75;;;11.50;58.50;;;;;;5051547;28;20064;-57
2022/11/11 04:52:50;;;;;;;13.93;7.65;;;11.50;58.50;;;;;;5053898;28;20049;-57
2022/11/11 04:58:03;;;;;;;11.93;6.72;;;11.50;58.50;;;;;;5049346;28;20071;-57
2022/11/11 05:00:31;;;;;;;15.40;7.68;;;11.50;58.50;;;;;;5043427;28;20063;-57
2022/11/11 05:03:16;;;;;;;10.15;6.70;;;11.50;58.50;;;;;;5044300;28;20052;-50
2022/11/11 05:11:17;;;;;;;13.77;6.88;;;11.60;58.50;;;;;;5061946;28;20052;-50
2022/11/11 05:22:12;;;;;;;12.95;7.32;;;11.50;58.60;;;;;;5051628;28;20056;-57
2022/11/11 05:27:25;;;;;;;14.70;7.50;;;11.50;58.60;;;;;;5054824;28;20056;-57
2022/11/11 05:29:52;;;;;;;15.35;7.40;;;11.50;58.60;;;;;;5050453;28;20064;-57
2022/11/11 05:32:21;;;;;;;16.05;8.95;;;11.50;58.70;;;;;;5046210;28;20059;-57
2022/11/11 05:34:48;;;;;;;14.98;7.65;;;11.50;58.70;;;;;;5055418;28;20056;-57
2022/11/11 05:37:17;;;;;;;12.90;7.78;;;11.50;58.70;;;;;;5050212;28;20044;-55
2022/11/11 05:39:45;;;;;;;11.60;7.25;;;11.50;58.70;;;;;;5043975;28;20057;-57
2022/11/11 05:42:13;;;;;;;10.68;6.47;;;11.50;58.70;;;;;;5061512;28;20083;-57
2022/11/11 05:44:40;;;;;;;17.25;7.55;;;11.50;58.70;;;;;;5064999;28;20063;-55
2022/11/11 05:47:07;;;;;;;15.00;8.10;;;11.50;58.70;;;;;;5049509;28;20515;-57
2022/11/11 05:49:35;;;;;;;15.05;7.88;;;11.50;58.80;;;;;;5048725;28;20053;-56
2022/11/11 05:52:03;;;;;;;16.25;8.57;;;11.50;58.70;;;;;;5045452;28;20500;-55
2022/11/11 05:54:32;;;;;;;15.18;8.18;;;11.50;58.80;;;;;;5061533;28;20048;-58
2022/11/11 05:57:00;;;;;;;13.38;7.20;;;11.50;58.90;;;;;;5057779;28;20048;-57
2022/11/11 05:59:27;;;;;;;15.25;7.65;;;11.50;58.90;;;;;;5057262;28;20064;-57
2022/11/11 06:01:55;;;;;;;16.40;9.55;;;11.50;58.90;;;;;;5037543;28;20063;-49
2022/11/11 06:04:22;;;;;;;41.00;18.55;;;11.50;59.00;;;;;;5045712;28;20060;-57
2022/11/11 06:06:50;;;;;;;39.83;17.15;;;11.50;59.00;;;;;;5054213;28;20060;-49
2022/11/11 06:09:17;;;;;;;24.75;12.63;;;11.50;59.10;;;;;;5046791;28;20060;-52
2022/11/11 06:11:46;;;;;;;18.27;9.52;;;11.50;59.10;;;;;;5053546;28;20389;-57
2022/11/11 06:14:13;;;;;;;19.20;8.68;;;11.50;59.20;;;;;;5043174;28;20060;-55
2022/11/11 06:16:40;;;;;;;13.60;7.85;;;11.50;59.10;;;;;;5057500;28;20053;-57
2022/11/11 06:19:07;;;;;;;15.93;8.27;;;11.50;59.20;;;;;;5048350;28;20052;-57
2022/11/11 06:21:55;;;;;;;15.43;7.43;;;11.40;59.10;;;;;;5048980;28;20507;-57
2022/11/11 06:24:23;;;;;;;14.98;7.20;;;11.50;59.20;;;;;;5051404;28;20056;-56
2022/11/11 06:26:51;;;;;;;12.90;7.10;;;11.50;59.20;;;;;;5043660;28;20511;-56
2022/11/11 06:29:19;;;;;;;19.38;8.77;;;11.40;59.10;;;;;;5045372;28;20508;-55
2022/11/11 06:31:46;;;;;;;38.13;18.65;;;11.50;59.20;;;;;;5044458;28;20048;-53
2022/11/11 06:34:13;;;;;;;49.75;24.40;;;11.50;59.20;;;;;;5042789;28;20076;-56
2022/11/11 06:36:40;;;;;;;26.15;13.75;;;11.50;59.20;;;;;;5047024;28;20424;-57
2022/11/11 06:39:08;;;;;;;20.75;10.25;;;11.50;59.30;;;;;;5045595;28;20064;-57
2022/11/11 06:41:35;;;;;;;13.63;8.52;;;11.50;59.30;;;;;;5056781;28;20059;-57
2022/11/11 06:44:04;;;;;;;11.68;7.30;;;11.40;59.20;;;;;;5056305;28;20056;-57
2022/11/11 06:46:31;;;;;;;16.10;8.15;;;11.40;59.30;;;;;;5057185;28;20049;-57
2022/11/11 06:48:58;;;;;;;15.02;7.75;;;11.50;59.30;;;;;;5041331;28;20061;-54
2022/11/11 06:51:26;;;;;;;16.83;8.77;;;11.40;59.30;;;;;;5045050;28;20052;-54
2022/11/11 06:53:53;;;;;;;13.38;7.72;;;11.50;59.30;;;;;;5039070;28;20049;-56
2022/11/11 06:56:20;;;;;;;12.32;8.40;;;11.50;59.40;;;;;;5038915;28;20055;-57
2022/11/11 06:58:47;;;;;;;17.50;8.30;;;11.50;59.40;;;;;;5053463;28;20052;-57
2022/11/11 07:01:16;;;;;;;15.75;7.70;;;11.50;59.40;;;;;;5038375;28;20543;-53
2022/11/11 07:03:43;;;;;;;15.27;8.30;;;11.50;59.50;;;;;;5048010;28;20056;-57
2022/11/11 07:06:11;;;;;;;16.77;8.38;;;11.50;59.50;;;;;;5040452;28;20911;-55
2022/11/11 07:08:38;;;;;;;14.85;8.15;;;11.40;59.50;;;;;;5044583;28;20045;-57
2022/11/11 07:11:05;;;;;;;13.95;8.32;;;11.50;59.50;;;;;;5049202;28;20055;-57
2022/11/11 07:13:32;;;;;;;14.98;8.10;;;11.50;59.60;;;;;;5041839;28;20053;-57
2022/11/11 07:16:00;;;;;;;15.18;8.20;;;11.50;59.60;;;;;;5050541;28;20480;-58
2022/11/11 07:18:30;;;;;;;15.48;8.00;;;11.50;59.70;;;;;;5038331;28;20057;-57
2022/11/11 07:20:58;;;;;;;15.98;8.05;;;11.50;59.70;;;;;;5039840;28;20052;-53
2022/11/11 07:23:25;;;;;;;13.93;8.23;;;11.50;59.70;;;;;;5047648;28;20061;-55
2022/11/11 07:25:52;;;;;;;20.45;8.68;;;11.50;59.70;;;;;;5057903;28;20048;-57
2022/11/11 07:28:19;;;;;;;13.55;7.75;;;11.50;59.70;;;;;;5055015;28;20068;-57
2022/11/11 07:30:47;;;;;;;11.95;7.47;;;11.50;59.70;;;;;;5054719;28;20061;-55
2022/11/11 07:33:14;;;;;;;14.25;7.72;;;11.50;59.80;;;;;;5046403;28;20492;-57
2022/11/11 07:35:43;;;;;;;16.85;9.07;;;11.50;59.80;;;;;;5058001;28;20049;-57
2022/11/11 07:38:10;;;;;;;13.20;7.65;;;11.50;59.80;;;;;;5061750;28;20055;-58
2022/11/11 07:40:37;;;;;;;13.23;7.97;;;11.60;59.90;;;;;;5056763;28;20064;-55
2022/11/11 07:43:04;;;;;;;13.43;7.28;;;11.60;59.90;;;;;;5044563;28;20052;-48
2022/11/11 07:45:32;;;;;;;14.60;7.18;;;11.60;59.80;;;;;;5053452;28;20408;-51
2022/11/11 07:47:59;;;;;;;16.98;7.75;;;11.60;59.90;;;;;;5058576;28;20496;-54
2022/11/11 07:50:27;;;;;;;12.90;7.70;;;11.60;59.90;;;;;;5057619;28;20053;-58
2022/11/11 07:52:56;;;;;;;21.60;7.47;;;11.60;59.90;;;;;;5043472;28;20049;-56
2022/11/11 07:55:23;;;;;;;14.80;7.97;;;11.60;60.00;;;;;;5053494;28;20424;-57
2022/11/11 07:57:52;;;;;;;13.80;8.13;;;11.60;60.00;;;;;;5049331;28;20060;-55
2022/11/11 08:00:19;;;;;;;19.30;7.20;;;11.60;60.00;;;;;;5044016;28;20052;-56
2022/11/11 08:02:47;;;;;;;19.83;8.60;;;11.60;60.10;;;;;;5046337;28;20432;-55
2022/11/11 08:05:15;;;;;;;11.70;7.13;;;11.70;60.20;;;;;;5050855;28;20048;-56
2022/11/11 08:07:42;;;;;;;11.43;6.50;;;11.70;60.20;;;;;;5049115;28;20053;-52
2022/11/11 08:10:12;;;;;;;15.13;7.93;;;11.70;60.20;;;;;;5042604;28;20057;-51
2022/11/11 08:15:24;;;;;;;17.50;7.22;;;11.80;60.30;;;;;;5055463;28;20515;-57
2022/11/11 08:17:51;;;;;;;14.02;7.45;;;11.80;60.40;;;;;;5044257;28;20049;-57
2022/11/11 08:20:18;;;;;;;17.65;7.55;;;11.80;60.40;;;;;;5048426;28;20068;-58
2022/11/11 08:22:46;;;;;;;46.42;20.73;;;11.80;60.40;;;;;;5043122;28;20424;-56
2022/11/11 08:25:14;;;;;;;36.30;15.75;;;11.80;60.30;;;;;;5040976;28;20491;-58
2022/11/11 08:27:42;;;;;;;16.45;8.55;;;11.80;60.30;;;;;;5056200;28;20423;-57
2022/11/11 08:30:10;;;;;;;14.93;8.07;;;11.90;60.40;;;;;;5048231;28;20056;-57
2022/11/11 08:32:38;;;;;;;13.40;7.82;;;11.90;60.40;;;;;;5054644;28;20400;-54
2022/11/11 08:35:06;;;;;;;15.18;7.82;;;11.90;60.40;;;;;;5057580;28;20076;-56
2022/11/11 08:37:33;;;;;;;10.15;6.32;;;11.90;61.20;;;;;;5050390;28;20045;-57
2022/11/11 08:40:00;;;;;;;12.70;6.30;;;12.00;60.60;;;;;;5059463;28;20053;-51
2022/11/11 08:42:29;;;;;;;13.05;6.35;;;12.00;60.60;;;;;;5053934;28;20053;-54
2022/11/11 08:44:56;;;;;;;13.90;6.70;;;12.00;60.60;;;;;;5046914;28;20413;-55
2022/11/11 08:47:23;;;;;;;12.30;6.13;;;12.10;60.70;;;;;;5049669;28;20408;-57
2022/11/11 08:49:51;;;;;;;14.68;7.07;;;12.10;60.60;;;;;;5043608;28;20049;-57
2022/11/11 08:52:18;;;;;;;12.48;6.50;;;12.10;60.70;;;;;;5040959;28;20500;-52
2022/11/11 08:54:45;;;;;;;12.00;5.90;;;12.10;60.70;;;;;;5038733;28;20799;-52
2022/11/11 08:57:13;;;;;;;14.25;7.07;;;12.20;60.70;;;;;;5036264;28;20765;-55
2022/11/11 08:59:41;;;;;;;30.50;14.63;;;12.20;60.80;;;;;;5041598;28;20053;-57
2022/11/11 09:02:11;;;;;;;30.65;15.05;;;12.20;60.80;;;;;;5043088;28;20143;-58
2022/11/11 09:04:39;;;;;;;20.20;8.30;;;12.30;60.90;;;;;;5051525;28;20057;-56
2022/11/11 09:07:06;;;;;;;12.57;6.28;;;12.30;60.90;;;;;;5042179;28;21016;-57
2022/11/11 09:09:34;;;;;;;13.73;6.00;;;12.30;60.90;;;;;;5045235;28;20480;-57
2022/11/11 09:12:01;;;;;;;9.88;6.00;;;12.40;60.80;;;;;;5044203;28;20056;-53
2022/11/11 09:14:28;;;;;;;9.02;5.65;;;12.40;60.70;;;;;;5047388;28;20060;-51
2022/11/11 09:16:57;;;;;;;13.38;6.30;;;12.40;60.60;;;;;;5045843;28;20060;-56
2022/11/11 09:19:24;;;;;;;11.63;6.00;;;12.50;60.60;;;;;;5050549;28;20067;-57
2022/11/11 09:21:52;;;;;;;11.38;5.93;;;12.50;60.50;;;;;;5046707;28;20068;-57
2022/11/11 09:24:19;;;;;;;8.65;5.32;;;12.50;60.50;;;;;;5054653;28;20044;-57
2022/11/11 09:26:48;;;;;;;8.23;5.35;;;12.60;60.60;;;;;;5039145;28;20048;-51
2022/11/11 09:29:15;;;;;;;9.95;5.72;;;12.60;60.50;;;;;;5041773;28;20053;-57
2022/11/11 09:31:43;;;;;;;8.98;5.22;;;12.60;60.50;;;;;;5053446;28;20119;-57
2022/11/11 09:34:11;;;;;;;10.13;4.90;;;12.70;60.60;;;;;;5048924;28;20049;-57
2022/11/11 09:36:38;;;;;;;9.85;5.18;;;12.70;60.70;;;;;;5048336;28;20063;-57
2022/11/11 09:39:06;;;;;;;13.00;4.82;;;12.70;60.60;;;;;;5045793;28;20057;-56
2022/11/11 09:41:43;;;;;;;10.07;4.90;;;12.80;60.70;;;;;;5040507;28;20051;-53
2022/11/11 09:44:25;;;;;;;10.02;4.63;;;12.80;60.60;;;;;;5045549;28;20064;-57
2022/11/11 09:47:03;;;;;;;9.13;4.85;;;12.80;60.50;;;;;;5040089;28;20061;-57
2022/11/11 09:49:53;;;;;;;11.02;5.57;;;12.90;60.30;;;;;;5043363;28;20072;-57
2022/11/11 09:52:23;;;;;;;10.13;4.70;;;13.00;60.10;;;;;;5055817;28;20491;-57
2022/11/11 09:54:55;;;;;;;8.30;4.35;;;13.00;60.00;;;;;;5056515;28;20055;-58
2022/11/11 09:57:32;;;;;;;9.20;5.25;;;13.00;59.90;;;;;;5055813;28;20049;-57
2022/11/11 10:00:02;;;;;;;12.07;5.15;;;13.00;59.80;;;;;;5052027;28;20049;-55
2022/11/11 10:02:35;;;;;;;13.65;7.57;;;13.10;59.80;;;;;;5054658;28;20052;-56
2022/11/11 10:05:09;;;;;;;10.38;6.55;;;13.10;59.80;;;;;;5047326;28;20110;-56
2022/11/11 10:07:41;;;;;;;11.30;5.63;;;13.20;59.80;;;;;;5039662;28;20057;-55
2022/11/11 10:10:24;;;;;;;8.50;4.45;;;13.20;59.70;;;;;;5039019;28;20053;-56
2022/11/11 10:12:55;;;;;;;10.50;4.70;;;13.20;59.60;;;;;;5055739;28;20102;-56
2022/11/11 10:15:29;;;;;;;8.23;4.47;;;13.30;59.50;;;;;;5057627;28;20049;-53
2022/11/11 10:18:15;;;;;;;9.07;4.50;;;13.30;59.40;;;;;;5040655;28;20052;-57
2022/11/11 10:20:49;;;;;;;9.75;4.07;;;13.40;59.20;;;;;;5040190;28;20048;-56
2022/11/11 10:23:18;;;;;;;8.93;3.47;;;13.40;59.10;;;;;;5056111;28;20432;-56
2022/11/11 10:25:52;;;;;;;7.07;4.00;;;13.40;59.10;;;;;;5050576;28;20049;-57
2022/11/11 10:28:22;;;;;;;9.40;3.90;;;13.40;59.10;;;;;;5047683;28;21155;-57
2022/11/11 10:30:52;;;;;;;11.50;4.10;;;13.50;59.10;;;;;;5049441;28;20488;-56
2022/11/11 10:33:24;;;;;;;7.05;3.72;;;13.50;59.00;;;;;;5057216;28;20052;-56
2022/11/11 10:35:54;;;;;;;8.98;4.18;;;13.50;59.00;;;;;;5048625;28;20045;-57
2022/11/11 10:38:33;;;;;;;6.60;3.35;;;13.50;58.80;;;;;;5053688;28;20056;-57
2022/11/11 10:41:09;;;;;;;6.97;3.50;;;13.60;58.70;;;;;;5045579;28;20535;-51
2022/11/11 10:43:37;;;;;;;8.05;3.90;;;13.60;58.70;;;;;;5058842;28;20517;-54
2022/11/11 10:46:09;;;;;;;7.45;3.72;;;13.70;58.70;;;;;;5050322;28;20044;-52
2022/11/11 10:48:48;;;;;;;7.05;3.50;;;13.70;58.60;;;;;;5044470;28;20064;-57
2022/11/11 10:51:18;;;;;;;6.30;3.35;;;13.70;58.60;;;;;;5038631;28;20052;-57
2022/11/11 10:53:57;;;;;;;7.93;3.60;;;13.80;58.60;;;;;;5039911;28;20080;-57
2022/11/11 10:56:30;;;;;;;9.80;3.50;;;13.80;58.40;;;;;;5039078;28;20484;-57
2022/11/11 10:59:05;;;;;;;5.78;3.10;;;13.80;58.40;;;;;;5036697;28;20568;-57
2022/11/11 11:01:37;;;;;;;7.95;3.17;;;13.90;58.30;;;;;;5044532;28;20048;-57
2022/11/11 11:04:10;;;;;;;5.60;3.03;;;13.90;58.30;;;;;;5053219;28;20053;-57
2022/11/11 11:06:42;;;;;;;5.95;3.13;;;13.90;58.20;;;;;;5038804;28;20052;-57
2022/11/11 11:09:15;;;;;;;5.53;2.70;;;14.00;58.10;;;;;;5035274;28;20063;-57
2022/11/11 11:11:49;;;;;;;5.88;2.55;;;14.00;57.90;;;;;;5043804;28;20059;-57
2022/11/11 11:14:21;;;;;;;5.78;2.33;;;14.00;57.90;;;;;;5040810;28;21492;-54
2022/11/11 11:16:54;;;;;;;6.47;2.95;;;14.10;57.90;;;;;;5042371;28;20048;-57
2022/11/11 11:19:23;;;;;;;9.77;3.38;;;14.10;57.90;;;;;;5047505;28;20056;-57
2022/11/11 11:21:54;;;;;;;8.00;2.60;;;14.20;57.80;;;;;;5057592;28;20064;-57
2022/11/11 11:24:23;;;;;;;4.35;2.40;;;14.20;57.80;;;;;;5044830;28;20412;-57
2022/11/11 11:26:53;;;;;;;5.10;2.67;;;14.20;57.70;;;;;;5061825;28;20048;-57
2022/11/11 11:29:29;;;;;;;7.80;2.55;;;14.20;57.80;;;;;;5043406;28;20510;-57
2022/11/11 11:32:10;;;;;;;4.35;2.20;;;14.30;57.60;;;;;;5048815;28;20060;-57
2022/11/11 11:34:46;;;;;;;7.07;3.00;;;14.30;57.70;;;;;;5047197;28;20528;-56
2022/11/11 11:37:15;;;;;;;5.13;2.50;;;14.40;57.60;;;;;;5049971;28;20052;-56
2022/11/11 11:39:43;;;;;;;4.53;2.30;;;14.40;57.60;;;;;;5062455;28;20053;-55
2022/11/11 11:42:28;;;;;;;8.32;2.60;;;14.50;57.60;;;;;;5057780;28;20056;-49
2022/11/11 11:44:55;;;;;;;8.40;2.60;;;14.50;57.50;;;;;;5062791;28;20493;-54
2022/11/11 11:47:38;;;;;;;5.72;2.28;;;14.50;57.40;;;;;;5053558;28;20059;-56
2022/11/11 11:50:17;;;;;;;4.97;2.22;;;14.60;57.40;;;;;;5058358;28;20060;-57
2022/11/11 11:52:58;;;;;;;8.18;2.63;;;14.60;57.20;;;;;;5054471;28;20060;-56
2022/11/11 11:55:31;;;;;;;6.65;2.40;;;14.60;57.10;;;;;;5049584;28;20048;-56
2022/11/11 11:58:21;;;;;;;4.93;1.95;;;14.70;57.00;;;;;;5050184;28;20053;-56
2022/11/11 12:01:02;;;;;;;4.00;2.25;;;14.70;56.90;;;;;;5047124;28;20060;-56
2022/11/11 12:04:06;;;;;;;6.10;2.28;;;14.70;56.90;;;;;;5053592;28;20064;-49
2022/11/11 12:06:45;;;;;;;4.15;2.10;;;14.80;56.60;;;;;;5048080;28;20048;-57
2022/11/11 12:09:27;;;;;;;6.45;2.20;;;14.80;56.60;;;;;;5048797;28;20052;-53
2022/11/11 12:12:00;;;;;;;6.35;2.13;;;14.80;56.40;;;;;;5035304;28;20057;-53
2022/11/11 12:14:51;;;;;;;3.45;1.60;;;14.90;57.00;;;;;;5050827;28;20057;-56
2022/11/11 12:17:28;;;;;;;6.57;2.03;;;14.90;56.60;;;;;;5056627;28;20056;-55
2022/11/11 12:20:04;;;;;;;6.28;2.00;;;15.00;56.50;;;;;;5053685;28;20052;-55
2022/11/11 12:22:48;;;;;;;3.03;1.52;;;15.00;56.30;;;;;;5053405;28;20059;-55
2022/11/11 12:25:28;;;;;;;6.35;1.92;;;15.00;56.20;;;;;;5061017;28;20052;-52
2022/11/11 12:28:03;;;;;;;3.40;1.67;;;15.10;56.10;;;;;;5055134;28;19928;-56
2022/11/11 12:30:33;;;;;;;4.82;1.63;;;15.10;56.00;;;;;;5062801;28;20431;-56
2022/11/11 12:33:21;;;;;;;7.03;2.13;;;15.10;55.90;;;;;;5051605;28;20067;-53
2022/11/11 12:36:02;;;;;;;4.07;1.63;;;15.20;55.70;;;;;;5059697;28;20059;-56
2022/11/11 12:38:50;;;;;;;5.18;1.80;;;15.20;55.60;;;;;;5064761;28;20079;-56
2022/11/11 12:41:35;;;;;;;4.28;1.90;;;15.30;55.50;;;;;;5046248;28;20405;-55
2022/11/11 12:44:05;;;;;;;2.72;1.55;;;15.30;55.30;;;;;;5048372;28;20049;-54
2022/11/11 12:46:42;;;;;;;3.25;1.63;;;15.30;55.30;;;;;;5047648;28;20049;-56
2022/11/11 12:49:40;;;;;;;4.80;1.33;;;15.40;55.20;;;;;;5051089;28;20055;-55
2022/11/11 12:52:24;;;;;;;2.47;1.40;;;15.40;54.90;;;;;;5047422;28;20056;-56
2022/11/11 12:55:00;;;;;;;;;;;15.40;54.90;;;;;;5050462;28;20049;-56
2022/11/11 12:57:38;;;;;;;3.58;1.38;;;15.50;55.10;;;;;;5048009;28;20295;-53
2022/11/11 13:00:12;;;;;;;3.20;1.58;;;15.50;54.80;;;;;;5043041;28;20402;-54
2022/11/11 13:02:57;;;;;;;4.97;1.75;;;15.50;54.80;;;;;;5052676;28;20068;-51
2022/11/11 13:05:30;;;;;;;5.60;1.75;;;15.60;54.60;;;;;;5053720;28;20064;-48
2022/11/11 13:08:38;;;;;;;7.07;2.03;;;15.60;54.60;;;;;;5047229;28;20481;-55
2022/11/11 13:11:14;;;;;;;7.47;1.50;;;15.60;54.20;;;;;;5052129;28;20052;-55
2022/11/11 13:14:00;;;;;;;4.10;1.65;;;15.60;54.30;;;;;;5054173;28;20587;-55
2022/11/11 13:16:28;;;;;;;4.43;1.75;;;15.60;54.30;;;;;;5053512;28;20079;-56
2022/11/11 13:18:59;;;;;;;3.05;1.65;;;15.60;54.40;;;;;;5051296;28;20049;-55
2022/11/11 13:21:34;;;;;;;5.55;1.60;;;15.60;54.40;;;;;;5057000;28;20059;-55
2022/11/11 13:24:04;;;;;;;4.82;1.50;;;15.70;54.40;;;;;;5062802;28;20063;-55
2022/11/11 13:26:37;;;;;;;4.00;1.50;;;15.70;54.30;;;;;;5059612;28;20060;-56
2022/11/11 13:29:35;;;;;;;7.70;1.67;;;15.70;54.20;;;;;;5051493;28;20497;-56
2022/11/11 13:32:10;;;;;;;5.32;1.55;;;15.70;53.90;;;;;;5008087;28;20055;-53
2022/11/11 13:34:38;;;;;;;4.30;1.30;;;15.70;53.90;;;;;;5051765;28;20056;-54
2022/11/11 13:37:08;;;;;;;4.22;1.15;;;15.80;53.90;;;;;;5062710;28;20048;-55
2022/11/11 13:39:41;;;;;;;6.47;1.92;;;15.70;53.90;;;;;;5062412;28;20067;-56
2022/11/11 13:42:13;;;;;;;4.10;1.40;;;15.70;53.90;;;;;;5044855;28;20061;-49
2022/11/11 13:44:50;;;;;;;3.08;1.63;;;15.80;53.90;;;;;;5047131;28;20071;-55
2022/11/11 13:47:24;;;;;;;6.35;1.45;;;15.80;54.00;;;;;;5052720;28;20488;-53
2022/11/11 13:49:55;;;;;;;3.53;1.45;;;15.80;54.00;;;;;;5047332;28;20063;-55
2022/11/11 13:52:25;;;;;;;4.18;1.63;;;15.80;54.00;;;;;;5053857;28;20446;-56
2022/11/11 13:54:58;;;;;;;3.58;1.30;;;15.80;54.00;;;;;;5063037;28;20052;-56
2022/11/11 13:57:30;;;;;;;8.75;1.48;;;15.80;53.70;;;;;;5049560;28;20053;-55
2022/11/11 14:00:00;;;;;;;4.80;1.35;;;15.80;53.70;;;;;;5062876;28;20044;-54
2022/11/11 14:02:34;;;;;;;5.28;1.63;;;15.80;53.60;;;;;;5052080;28;20373;-56
2022/11/11 14:05:21;;;;;;;4.07;1.70;;;15.80;53.40;;;;;;5062121;28;20052;-53
2022/11/11 14:07:53;;;;;;;5.55;1.50;;;15.80;53.30;;;;;;5050660;28;20069;-56
2022/11/11 14:10:49;;;;;;;6.82;1.83;;;15.80;53.30;;;;;;5060175;28;20068;-54
2022/11/11 14:13:38;;;;;;;3.88;1.90;;;15.80;53.20;;;;;;5054890;28;20057;-50
2022/11/11 14:16:09;;;;;;;6.45;1.60;;;15.80;53.20;;;;;;5064393;28;20048;-56
2022/11/11 14:18:43;;;;;;;3.40;1.60;;;15.80;53.30;;;;;;5064175;28;20068;-56
2022/11/11 14:21:11;;;;;;;5.70;1.85;;;15.80;53.10;;;;;;5054940;28;20049;-53
2022/11/11 14:23:41;;;;;;;4.35;1.63;;;15.80;53.10;;;;;;5062458;28;20063;-58